Time;durP1;ratioP1;P1;durP2;ratioP2;P2;SDS_P1;SDS_P2;PMS_P1;PMS_P2;Temp;Humidity;BMP_temperature;BMP_pressure;BME280_temperature;BME280_humidity;BME280_pressure;Samples;Min_cycle;Max_cycle;Signal;HPM_P1;HPM_P2
2022/05/09 00:01:50;;;;;;;9.55;4.40;;;;;;;13.78;nan;95492.47;5019844;28;20265;-78
2022/05/09 00:04:19;;;;;;;7.68;4.00;;;;;;;13.33;nan;95495.91;5021437;28;20199;-78
2022/05/09 00:06:46;;;;;;;6.28;4.32;;;;;;;13.23;nan;95499.66;5017709;28;20283;-77
2022/05/09 00:09:13;;;;;;;7.07;3.75;;;;;;;13.45;nan;95495.41;5019002;28;20269;-77
2022/05/09 00:11:40;;;;;;;4.68;4.22;;;;;;;13.39;nan;95498.19;5017557;28;20700;-76
2022/05/09 00:14:09;;;;;;;5.63;3.88;;;;;;;13.53;nan;95501.06;5019358;28;20200;-77
2022/05/09 00:16:36;;;;;;;7.18;3.60;;;;;;;13.59;nan;95503.41;5017604;28;20236;-76
2022/05/09 00:19:04;;;;;;;5.18;3.67;;;;;;;13.33;nan;95506.09;5017868;28;20277;-77
2022/05/09 00:21:34;;;;;;;3.55;3.03;;;;;;;13.51;nan;95512.25;5018508;28;20687;-77
2022/05/09 00:24:01;;;;;;;4.75;3.22;;;;;;;13.59;nan;95507.69;5018414;28;20644;-77
2022/05/09 00:26:31;;;;;;;3.85;3.20;;;;;;;13.56;nan;95503.53;5019222;28;20226;-79
2022/05/09 00:28:58;;;;;;;3.38;3.17;;;;;;;13.42;nan;95515.97;5018350;28;20204;-77
2022/05/09 00:31:25;;;;;;;8.63;3.50;;;;;;;12.97;nan;95520.16;5018098;28;20218;-78
2022/05/09 00:33:52;;;;;;;5.38;3.30;;;;;;;12.71;nan;95513.41;5016731;28;20848;-79
2022/05/09 00:36:19;;;;;;;4.43;4.03;;;;;;;12.52;nan;95510.66;5017283;28;20204;-78
2022/05/09 00:38:47;;;;;;;4.28;3.85;;;;;;;12.77;nan;95521.69;5018911;28;20234;-77
2022/05/09 00:41:31;;;;;;;4.55;4.15;;;;;;;12.76;nan;95509.84;5017700;28;20262;-77
2022/05/09 00:44:01;;;;;;;4.05;3.72;;;;;;;12.87;nan;95512.81;5018237;28;20287;-78
2022/05/09 00:46:29;;;;;;;4.72;4.15;;;;;;;12.57;nan;95513.91;5019215;28;20309;-77
2022/05/09 00:48:59;;;;;;;4.70;4.22;;;;;;;12.34;nan;95517.22;5016797;28;20595;-77
2022/05/09 00:51:29;;;;;;;4.80;3.88;;;;;;;12.40;nan;95514.44;5016616;28;20200;-77
2022/05/09 00:54:00;;;;;;;4.50;3.65;;;;;;;12.48;nan;95520.13;5017380;28;20584;-78
2022/05/09 00:56:30;;;;;;;4.15;3.78;;;;;;;12.29;nan;95518.25;5017839;28;20211;-77
2022/05/09 00:59:00;;;;;;;7.50;4.30;;;;;;;12.39;nan;95514.50;5019205;28;20231;-77
2022/05/09 01:01:28;;;;;;;6.15;3.80;;;;;;;12.44;nan;95512.63;5016568;28;20659;-77
2022/05/09 01:04:03;;;;;;;4.85;3.88;;;;;;;12.44;nan;95510.91;5016958;28;20314;-77
2022/05/09 01:06:29;;;;;;;7.13;4.35;;;;;;;12.50;nan;95523.47;5017147;28;20199;-78
2022/05/09 01:08:57;;;;;;;4.60;4.20;;;;;;;12.16;nan;95521.19;5016211;28;20200;-78
2022/05/09 01:11:27;;;;;;;3.72;3.08;;;;;;;11.80;nan;95519.81;5017785;28;20765;-77
2022/05/09 01:13:58;;;;;;;3.55;3.25;;;;;;;11.63;nan;95522.03;5016993;28;20200;-77
2022/05/09 01:16:27;;;;;;;7.78;3.60;;;;;;;11.62;nan;95515.28;5016295;28;20243;-77
2022/05/09 01:18:53;;;;;;;6.40;3.28;;;;;;;11.43;nan;95530.22;5017970;28;20261;-79
2022/05/09 01:21:33;;;;;;;6.15;3.05;;;;;;;11.07;nan;95511.78;5017057;28;20253;-77
2022/05/09 01:24:01;;;;;;;5.93;3.45;;;;;;;11.07;nan;95509.25;5018462;28;20231;-77
2022/05/09 01:26:27;;;;;;;3.85;3.35;;;;;;;11.17;nan;95514.00;5016591;28;20223;-78
2022/05/09 01:29:01;;;;;;;6.85;3.25;;;;;;;11.33;nan;95524.59;5018475;28;20207;-77
2022/05/09 01:31:27;;;;;;;3.53;3.15;;;;;;;11.76;nan;95515.66;5016463;28;20211;-77
2022/05/09 01:33:55;;;;;;;3.63;3.42;;;;;;;12.01;nan;95513.22;5017107;28;20723;-78
2022/05/09 01:36:27;;;;;;;7.35;3.80;;;;;;;12.34;nan;95521.50;5015117;28;20619;-77
2022/05/09 01:38:58;;;;;;;6.22;3.70;;;;;;;12.44;nan;95517.72;5017109;28;20239;-77
2022/05/09 01:41:26;;;;;;;4.53;3.22;;;;;;;12.01;nan;95513.22;5014299;28;20200;-77
2022/05/09 01:43:55;;;;;;;6.60;4.10;;;;;;;12.04;nan;95516.50;5016822;28;20204;-77
2022/05/09 01:46:25;;;;;;;4.57;3.95;;;;;;;11.87;nan;95527.22;5016253;28;20251;-77
2022/05/09 01:51:39;;;;;;;3.67;3.38;;;;;;;11.93;nan;95531.28;5014880;28;20227;-77
2022/05/09 01:54:08;;;;;;;5.80;3.40;;;;;;;11.45;nan;95524.22;5017779;28;20231;-77
2022/05/09 01:56:39;;;;;;;3.72;3.42;;;;;;;11.12;nan;95522.69;5016098;28;20257;-77
2022/05/09 01:59:07;;;;;;;4.75;3.30;;;;;;;11.04;nan;95527.97;5016624;28;20223;-77
2022/05/09 02:01:37;;;;;;;4.13;3.20;;;;;;;10.88;nan;95519.09;5017146;28;20258;-77
2022/05/09 02:04:05;;;;;;;9.05;3.72;;;;;;;11.18;nan;95512.31;5018650;28;20323;-78
2022/05/09 02:06:32;;;;;;;4.30;3.15;;;;;;;11.71;nan;95525.16;5018081;28;20248;-77
2022/05/09 02:08:59;;;;;;;4.20;3.50;;;;;;;11.92;nan;95522.81;5018077;28;20200;-78
2022/05/09 02:11:27;;;;;;;4.97;3.47;;;;;;;11.93;nan;95523.63;5016793;28;20265;-78
2022/05/09 02:13:53;;;;;;;3.70;3.40;;;;;;;12.01;nan;95524.25;5016120;28;20269;-78
2022/05/09 02:16:20;;;;;;;3.97;3.60;;;;;;;11.99;nan;95530.25;5018208;28;20234;-77
2022/05/09 02:18:47;;;;;;;5.72;3.97;;;;;;;11.91;nan;95528.78;5017996;28;20242;-78
2022/05/09 02:21:14;;;;;;;11.45;4.18;;;;;;;12.03;nan;95527.56;5016292;28;20204;-78
2022/05/09 02:23:42;;;;;;;4.18;3.78;;;;;;;12.10;nan;95518.88;5016632;28;20980;-78
2022/05/09 02:26:09;;;;;;;5.63;3.42;;;;;;;12.21;nan;95521.88;5016700;28;20253;-77
2022/05/09 02:28:38;;;;;;;4.20;3.80;;;;;;;12.16;nan;95531.38;5020546;28;20192;-78
2022/05/09 02:31:05;;;;;;;6.60;3.65;;;;;;;11.57;nan;95538.31;5020947;28;20340;-77
2022/05/09 02:33:32;;;;;;;9.68;3.72;;;;;;;11.22;nan;95529.16;5020485;28;20210;-77
2022/05/09 02:35:59;;;;;;;4.90;3.67;;;;;;;10.93;nan;95531.66;5019952;28;20204;-77
2022/05/09 02:38:28;;;;;;;5.90;3.90;;;;;;;10.70;nan;95522.97;5019211;28;20414;-77
2022/05/09 02:40:55;;;;;;;5.93;3.90;;;;;;;10.68;nan;95541.66;5020911;28;20207;-77
2022/05/09 02:43:22;;;;;;;3.80;3.50;;;;;;;10.29;nan;95530.81;5022556;28;20260;-79
2022/05/09 02:45:50;;;;;;;5.55;4.03;;;;;;;10.01;nan;95540.78;5018010;28;20638;-76
2022/05/09 02:48:17;;;;;;;4.20;3.40;;;;;;;10.00;nan;95550.09;5020043;28;20573;-77
2022/05/09 02:50:44;;;;;;;6.38;3.08;;;;;;;10.16;nan;95550.56;5018224;28;20290;-77
2022/05/09 02:53:12;;;;;;;5.20;3.40;;;;;;;10.27;nan;95553.72;5021199;28;20325;-77
2022/05/09 02:55:39;;;;;;;10.65;5.18;;;;;;;10.66;nan;95556.94;5019019;28;20698;-77
2022/05/09 02:58:06;;;;;;;3.45;3.15;;;;;;;10.84;nan;95553.94;5019987;28;20662;-78
2022/05/09 03:00:33;;;;;;;4.75;4.00;;;;;;;10.93;nan;95529.13;5020471;28;20252;-77
2022/05/09 03:05:47;;;;;;;5.90;3.70;;;;;;;11.30;nan;95545.03;5019405;28;20214;-78
2022/05/09 03:08:15;;;;;;;7.20;4.00;;;;;;;11.07;nan;95552.50;5017591;28;20274;-77
2022/05/09 03:10:42;;;;;;;7.32;3.85;;;;;;;10.85;nan;95553.06;5016169;28;20706;-76
2022/05/09 03:13:12;;;;;;;5.10;4.13;;;;;;;10.75;nan;95553.34;5015847;28;20203;-78
2022/05/09 03:15:42;;;;;;;6.95;3.63;;;;;;;10.44;nan;95560.91;5016097;28;20204;-76
2022/05/09 03:18:11;;;;;;;9.52;4.10;;;;;;;10.43;nan;95564.31;5016815;28;20289;-78
2022/05/09 03:20:39;;;;;;;6.35;3.85;;;;;;;10.64;nan;95566.31;5016987;28;20207;-76
2022/05/09 03:23:07;;;;;;;5.47;3.92;;;;;;;10.52;nan;95564.94;5015832;28;20208;-77
2022/05/09 03:25:35;;;;;;;9.25;4.38;;;;;;;10.55;nan;95575.03;5018331;28;20758;-77
2022/05/09 03:28:03;;;;;;;4.13;3.78;;;;;;;10.43;nan;95574.50;5020035;28;20215;-77
2022/05/09 03:30:30;;;;;;;4.32;3.92;;;;;;;10.04;nan;95581.34;5021197;28;20215;-77
2022/05/09 03:32:57;;;;;;;5.50;4.03;;;;;;;9.57;nan;95587.47;5019803;28;20204;-76
2022/05/09 03:35:26;;;;;;;7.63;4.25;;;;;;;9.68;nan;95583.00;5018681;28;21026;-77
2022/05/09 03:37:53;;;;;;;16.73;6.95;;;;;;;9.74;nan;95581.16;5019337;28;20312;-76
2022/05/09 03:40:21;;;;;;;23.58;11.50;;;;;;;9.72;nan;95579.53;5019319;28;20287;-79
2022/05/09 03:42:48;;;;;;;34.55;12.60;;;;;;;9.65;nan;95578.00;5017836;28;20204;-76
2022/05/09 03:45:16;;;;;;;51.33;21.02;;;;;;;9.76;nan;95574.34;5018610;28;20663;-78
2022/05/09 03:47:43;;;;;;;46.67;17.65;;;;;;;10.06;nan;95585.53;5016969;28;20795;-76
2022/05/09 03:50:13;;;;;;;53.42;21.75;;;;;;;10.02;nan;95578.84;5015535;28;20656;-78
2022/05/09 03:52:41;;;;;;;61.85;22.95;;;;;;;10.03;nan;95577.13;5018380;28;20204;-76
2022/05/09 03:55:08;;;;;;;50.75;20.90;;;;;;;10.11;nan;95588.78;5017930;28;20495;-77
2022/05/09 03:57:45;;;;;;;42.47;15.43;;;;;;;10.32;nan;95581.56;5016489;28;20687;-77
2022/05/09 04:00:12;;;;;;;30.05;12.32;;;;;;;10.62;nan;95596.06;5016986;28;20199;-79
2022/05/09 04:02:39;;;;;;;27.27;11.30;;;;;;;11.31;nan;95572.16;5017039;28;20195;-78
2022/05/09 04:05:08;;;;;;;19.35;10.85;;;;;;;12.07;nan;95585.19;5016094;28;20907;-76
2022/05/09 04:07:35;;;;;;;26.60;11.07;;;;;;;12.56;nan;95586.19;5018618;28;20589;-76
2022/05/09 04:10:04;;;;;;;29.80;11.50;;;;;;;12.85;nan;95583.50;5017654;28;20698;-76
2022/05/09 04:12:32;;;;;;;38.15;14.45;;;;;;;13.15;nan;95575.63;5016078;28;20188;-77
2022/05/09 04:17:44;;;;;;;27.05;11.95;;;;;;;13.31;nan;95583.63;5016465;28;20612;-78
2022/05/09 04:20:11;;;;;;;43.50;19.27;;;;;;;13.59;nan;95585.13;5017376;28;20231;-77
2022/05/09 04:22:40;;;;;;;67.00;30.38;;;;;;;13.80;nan;95575.81;5017264;28;20298;-76
2022/05/09 04:25:09;;;;;;;24.17;13.20;;;;;;;14.07;nan;95586.72;5018122;28;20582;-76
2022/05/09 04:27:36;;;;;;;15.15;8.60;;;;;;;14.30;nan;95596.88;5016024;28;20227;-76
2022/05/09 04:30:05;;;;;;;17.02;7.10;;;;;;;14.60;nan;95587.13;5019501;28;20575;-76
2022/05/09 04:32:32;;;;;;;13.55;7.55;;;;;;;14.87;nan;95586.88;5018242;28;20295;-77
2022/05/09 04:34:59;;;;;;;14.35;8.18;;;;;;;15.06;nan;95589.53;5017051;28;20650;-77
2022/05/09 04:37:26;;;;;;;15.15;7.18;;;;;;;14.98;nan;95590.69;5016292;28;20207;-76
2022/05/09 04:39:54;;;;;;;15.93;7.32;;;;;;;15.00;nan;95587.22;5019923;28;20293;-78
2022/05/09 04:42:22;;;;;;;11.43;6.65;;;;;;;15.21;nan;95593.97;5016727;28;20211;-76
2022/05/09 04:44:49;;;;;;;14.38;8.90;;;;;;;15.28;nan;95592.81;5017274;28;20212;-77
2022/05/09 04:47:15;;;;;;;38.35;24.00;;;;;;;15.40;nan;95586.31;5016924;28;20208;-77
2022/05/09 04:49:42;;;;;;;18.38;8.65;;;;;;;15.24;nan;95593.84;5016410;28;20204;-77
2022/05/09 04:52:09;;;;;;;11.90;6.18;;;;;;;15.34;nan;95595.13;5017411;28;20293;-76
2022/05/09 04:54:36;;;;;;;17.58;6.05;;;;;;;15.78;nan;95594.91;5017488;28;20212;-77
2022/05/09 04:57:02;;;;;;;7.28;5.05;;;;;;;16.16;nan;95590.56;5017392;28;20616;-76
2022/05/09 04:59:31;;;;;;;12.38;6.70;;;;;;;16.52;nan;95588.81;5017861;28;20266;-77
2022/05/09 05:01:57;;;;;;;9.82;7.25;;;;;;;16.88;nan;95599.03;5018191;28;20722;-77
2022/05/09 05:04:24;;;;;;;10.73;7.18;;;;;;;17.23;nan;95589.56;5018314;28;20286;-77
2022/05/09 05:06:51;;;;;;;9.40;7.38;;;;;;;17.43;nan;95577.41;5017711;28;20195;-78
2022/05/09 05:09:18;;;;;;;12.10;5.28;;;;;;;18.23;nan;95591.09;5016897;28;20199;-78
2022/05/09 05:11:45;;;;;;;14.50;4.97;;;;;;;18.95;nan;95584.47;5017006;28;20740;-78
2022/05/09 05:14:11;;;;;;;11.20;4.72;;;;;;;19.61;nan;95589.16;5016868;28;20218;-78
2022/05/09 05:19:24;;;;;;;6.53;5.00;;;;;;;20.02;nan;95591.78;5016626;28;20612;-78
2022/05/09 05:21:51;;;;;;;6.95;5.05;;;;;;;20.51;nan;95580.97;5016077;28;20231;-78
2022/05/09 05:24:18;;;;;;;8.52;5.20;;;;;;;22.80;nan;95586.72;5018210;28;20215;-78
2022/05/09 05:26:45;;;;;;;6.35;5.53;;;;;;;25.52;nan;95574.69;5015007;28;20745;-78
2022/05/09 05:29:12;;;;;;;6.15;5.63;;;;;;;27.29;nan;95575.56;5016248;28;20274;-77
2022/05/09 05:31:40;;;;;;;9.05;5.68;;;;;;;29.48;nan;95567.47;5018024;28;21431;-78
2022/05/09 05:34:07;;;;;;;10.20;5.05;;;;;;;30.25;nan;95561.28;5022238;28;20204;-79
2022/05/09 05:36:34;;;;;;;9.95;4.57;;;;;;;31.00;nan;95571.75;5018612;28;20204;-78
2022/05/09 05:39:01;;;;;;;7.53;5.15;;;;;;;29.98;nan;95575.44;5017801;28;20966;-79
2022/05/09 05:41:28;;;;;;;8.93;5.88;;;;;;;30.91;nan;95570.94;5016161;28;20203;-79
2022/05/09 05:43:55;;;;;;;11.35;6.03;;;;;;;30.40;nan;95564.13;5016082;28;20203;-77
2022/05/09 05:46:21;;;;;;;8.32;6.03;;;;;;;29.31;nan;95576.19;5015929;28;20285;-76
2022/05/09 05:48:50;;;;;;;9.73;5.28;;;;;;;29.24;nan;95556.81;5017109;28;20699;-79
2022/05/09 05:51:18;;;;;;;7.32;5.47;;;;;;;30.25;nan;95556.03;5015565;28;20905;-79
2022/05/09 05:53:46;;;;;;;9.25;6.10;;;;;;;30.99;nan;95575.34;5016124;28;20675;-77
2022/05/09 05:56:13;;;;;;;6.53;5.82;;;;;;;31.52;nan;95561.69;5015991;28;20203;-77
2022/05/09 05:58:40;;;;;;;12.95;5.80;;;;;;;30.74;nan;95567.47;5016208;28;20291;-78
2022/05/09 06:01:06;;;;;;;7.38;5.50;;;;;;;31.25;nan;95568.16;5016761;28;20598;-78
2022/05/09 06:03:33;;;;;;;9.40;5.93;;;;;;;32.21;nan;95557.53;5015472;28;20211;-78
2022/05/09 06:06:02;;;;;;;10.93;6.30;;;;;;;31.27;nan;95558.28;5016845;28;20208;-77
2022/05/09 06:08:29;;;;;;;8.23;5.90;;;;;;;31.39;nan;95561.41;5015208;28;20204;-78
2022/05/09 06:10:56;;;;;;;6.35;5.75;;;;;;;32.10;nan;95569.25;5014641;28;20282;-77
2022/05/09 06:13:22;;;;;;;7.45;6.32;;;;;;;32.50;nan;95567.41;5017883;28;20203;-78
2022/05/09 06:15:49;;;;;;;10.68;6.45;;;;;;;31.92;nan;95567.88;5015581;28;20203;-76
2022/05/09 06:18:16;;;;;;;10.30;6.70;;;;;;;32.01;nan;95556.31;5016296;28;20675;-77
2022/05/09 06:20:44;;;;;;;8.77;6.15;;;;;;;31.91;nan;95567.03;5015850;28;20670;-77
2022/05/09 06:23:16;;;;;;;9.15;6.85;;;;;;;30.85;nan;95570.75;5016255;28;20211;-77
2022/05/09 06:25:46;;;;;;;7.30;6.13;;;;;;;31.19;nan;95565.34;5016000;28;20310;-77
2022/05/09 06:28:14;;;;;;;12.20;6.28;;;;;;;30.03;nan;95580.22;5016064;28;20480;-79
2022/05/09 06:30:42;;;;;;;10.68;7.05;;;;;;;28.39;nan;95576.50;5012842;28;20326;-77
2022/05/09 06:33:09;;;;;;;7.35;6.32;;;;;;;28.82;nan;95564.50;5016687;28;20954;-77
2022/05/09 06:35:41;;;;;;;12.25;6.22;;;;;;;29.78;nan;95568.78;5015283;28;20208;-77
2022/05/09 06:38:08;;;;;;;14.27;6.15;;;;;;;30.09;nan;95574.34;5016547;28;20215;-77
2022/05/09 06:40:36;;;;;;;13.50;7.07;;;;;;;30.35;nan;95569.03;5018290;28;20250;-78
2022/05/09 06:43:06;;;;;;;9.15;6.60;;;;;;;30.13;nan;95567.00;5017004;28;20207;-78
2022/05/09 06:45:34;;;;;;;11.88;7.07;;;;;;;30.27;nan;95554.06;5016729;28;20291;-78
2022/05/09 06:48:02;;;;;;;8.10;7.07;;;;;;;29.44;nan;95566.16;5014943;28;20781;-79
2022/05/09 06:50:30;;;;;;;10.50;6.25;;;;;;;29.50;nan;95557.66;5016588;28;20315;-76
2022/05/09 06:52:58;;;;;;;13.75;7.72;;;;;;;28.36;nan;95564.56;5014718;28;20743;-76
2022/05/09 06:55:25;;;;;;;12.52;7.60;;;;;;;27.68;nan;95553.63;5013534;28;20200;-77
2022/05/09 06:58:32;;;;;;;11.85;6.55;;;;;;;27.82;nan;95564.56;5013418;28;20196;-78
2022/05/09 07:01:00;;;;;;;10.30;7.30;;;;;;;27.20;nan;95558.97;5012758;28;20195;-76
2022/05/09 07:03:30;;;;;;;15.48;8.98;;;;;;;27.81;nan;95553.28;5014057;28;20530;-77
2022/05/09 07:05:57;;;;;;;24.67;13.38;;;;;;;28.27;nan;95551.53;5012468;28;20766;-77
2022/05/09 07:08:29;;;;;;;21.95;12.88;;;;;;;27.79;nan;95560.44;5015355;28;20200;-76
2022/05/09 07:10:56;;;;;;;10.02;7.63;;;;;;;27.75;nan;95554.69;5014954;28;20748;-77
2022/05/09 07:13:23;;;;;;;10.68;8.38;;;;;;;27.93;nan;95546.91;5016609;28;20203;-76
2022/05/09 07:15:50;;;;;;;11.77;8.18;;;;;;;27.44;nan;95555.88;5017132;28;20683;-77
2022/05/09 07:18:18;;;;;;;9.15;6.55;;;;;;;27.03;nan;95554.44;5021573;28;20726;-79
2022/05/09 07:20:45;;;;;;;10.10;6.78;;;;;;;26.84;nan;95557.88;5016784;28;20258;-79
2022/05/09 07:23:14;;;;;;;14.20;8.73;;;;;;;26.16;nan;95554.38;5018732;28;20651;-79
2022/05/09 07:25:41;;;;;;;17.08;10.80;;;;;;;26.50;nan;95565.28;5014860;28;20195;-79
2022/05/09 07:28:09;;;;;;;19.98;7.53;;;;;;;26.37;nan;95555.13;5018948;28;20561;-79
2022/05/09 07:30:36;;;;;;;17.27;6.40;;;;;;;25.46;nan;95557.84;5017057;28;20211;-79
2022/05/09 07:33:03;;;;;;;6.03;5.47;;;;;;;24.91;nan;95557.22;5020189;28;20683;-77
2022/05/09 07:35:32;;;;;;;7.10;5.80;;;;;;;24.33;nan;95561.94;5018441;28;20208;-77
2022/05/09 07:37:59;;;;;;;10.55;6.45;;;;;;;24.67;nan;95561.81;5017155;28;20221;-67
2022/05/09 07:40:26;;;;;;;8.18;5.65;;;;;;;24.89;nan;95559.09;5015397;28;20258;-67
2022/05/09 07:42:53;;;;;;;9.68;4.72;;;;;;;24.98;nan;95560.16;5016053;28;20200;-69
2022/05/09 07:45:21;;;;;;;5.55;5.15;;;;;;;24.72;nan;95557.91;5017380;28;20231;-68
2022/05/09 07:47:48;;;;;;;6.47;5.25;;;;;;;24.29;nan;95563.13;5015847;28;20215;-66
2022/05/09 07:50:16;;;;;;;6.90;5.65;;;;;;;23.52;nan;95559.66;5017379;28;20204;-66
2022/05/09 07:52:45;;;;;;;6.10;4.85;;;;;;;23.43;nan;95565.53;5014949;28;21440;-67
2022/05/09 07:55:12;;;;;;;5.40;4.75;;;;;;;23.73;nan;95558.00;5016136;28;20253;-70
2022/05/09 07:57:39;;;;;;;10.13;5.60;;;;;;;24.02;nan;95553.13;5014631;28;20292;-67
2022/05/09 08:00:07;;;;;;;6.10;4.20;;;;;;;23.93;nan;95556.44;5014841;28;20294;-67
2022/05/09 08:02:34;;;;;;;4.88;4.43;;;;;;;23.41;nan;95557.03;5013942;28;20228;-68
2022/05/09 08:05:01;;;;;;;8.00;4.65;;;;;;;23.61;nan;95561.53;5014705;28;20203;-69
2022/05/09 08:07:28;;;;;;;3.95;3.47;;;;;;;23.70;nan;95560.84;5014719;28;20292;-69
2022/05/09 08:09:56;;;;;;;5.13;3.30;;;;;;;24.29;nan;95546.69;5016671;28;20605;-66
2022/05/09 08:12:23;;;;;;;14.85;4.60;;;;;;;24.41;nan;95554.34;5015557;28;20734;-69
2022/05/09 08:14:50;;;;;;;3.13;2.80;;;;;;;23.84;nan;95559.75;5015849;28;20306;-67
2022/05/09 08:17:17;;;;;;;5.85;2.83;;;;;;;23.38;nan;95542.53;5016737;28;20231;-68
2022/05/09 08:19:45;;;;;;;3.65;2.60;;;;;;;23.50;nan;95556.34;5017359;28;20235;-69
2022/05/09 08:22:12;;;;;;;3.55;3.25;;;;;;;23.73;nan;95557.19;5015638;28;20195;-69
2022/05/09 08:24:38;;;;;;;6.60;4.60;;;;;;;24.19;nan;95549.19;5016532;28;20362;-66
2022/05/09 08:27:07;;;;;;;8.40;3.15;;;;;;;24.10;nan;95549.91;5015891;28;20642;-67
2022/05/09 08:29:33;;;;;;;3.42;2.92;;;;;;;23.56;nan;95553.28;5016828;28;20207;-66
2022/05/09 08:32:00;;;;;;;6.95;2.53;;;;;;;23.61;nan;95558.94;5016585;28;20235;-68
2022/05/09 08:34:27;;;;;;;4.22;2.70;;;;;;;23.54;nan;95556.94;5016991;28;20207;-67
2022/05/09 08:36:55;;;;;;;7.68;2.90;;;;;;;23.70;nan;95555.66;5012710;28;20200;-67
2022/05/09 08:39:26;;;;;;;2.97;2.55;;;;;;;23.79;nan;95553.25;5015130;28;20227;-64
2022/05/09 08:41:56;;;;;;;3.78;2.40;;;;;;;23.53;nan;95550.91;5011885;28;20200;-66
2022/05/09 08:44:43;;;;;;;8.93;2.10;;;;;;;23.14;nan;95561.72;5012759;28;20219;-64
2022/05/09 08:47:29;;;;;;;4.00;2.65;;;;;;;23.26;nan;95559.00;5011234;28;20211;-65
2022/05/09 08:50:10;;;;;;;2.83;2.58;;;;;;;23.29;nan;95553.59;5012717;28;20312;-64
2022/05/09 08:52:42;;;;;;;2.95;2.17;;;;;;;23.28;nan;95551.13;5012492;28;20286;-65
2022/05/09 08:55:10;;;;;;;3.28;2.60;;;;;;;23.16;nan;95552.88;5014425;28;21359;-65
2022/05/09 08:57:41;;;;;;;3.08;2.40;;;;;;;23.26;nan;95563.41;5013687;28;20204;-65
2022/05/09 09:00:13;;;;;;;4.40;2.70;;;;;;;23.42;nan;95549.13;5014479;28;20277;-64
2022/05/09 09:02:44;;;;;;;3.33;2.03;;;;;;;23.69;nan;95551.41;5013638;28;20188;-64
2022/05/09 09:05:13;;;;;;;2.70;2.47;;;;;;;23.41;nan;95547.47;5014153;28;20215;-65
2022/05/09 09:08:04;;;;;;;3.55;2.50;;;;;;;23.45;nan;95548.06;5013237;28;20289;-66
2022/05/09 09:10:37;;;;;;;3.47;2.50;;;;;;;23.69;nan;95546.22;5014343;28;20273;-64
2022/05/09 09:13:22;;;;;;;8.32;2.35;;;;;;;24.07;nan;95540.59;5012129;28;20672;-65
2022/05/09 09:16:03;;;;;;;2.95;2.00;;;;;;;23.98;nan;95545.72;5019931;28;20210;-66
2022/05/09 09:18:42;;;;;;;3.17;1.88;;;;;;;23.37;nan;95542.66;5006873;28;20249;-64
2022/05/09 09:21:17;;;;;;;2.40;2.20;;;;;;;23.50;nan;95540.78;5007954;28;20318;-65
2022/05/09 09:24:07;;;;;;;2.72;1.90;;;;;;;23.91;nan;95540.16;5025896;28;20200;-64
2022/05/09 09:26:42;;;;;;;6.53;2.20;;;;;;;23.75;nan;95542.31;5024872;28;20285;-67
2022/05/09 09:29:14;;;;;;;3.67;2.28;;;;;;;23.47;nan;95538.41;5027929;28;20613;-67
2022/05/09 09:31:47;;;;;;;1.35;1.25;;;;;;;23.44;nan;95525.69;5027132;28;20239;-70
2022/05/09 09:34:24;;;;;;;3.75;1.30;;;;;;;23.91;nan;95528.97;5029933;28;20234;-68
2022/05/09 09:37:00;;;;;;;2.75;1.50;;;;;;;23.91;nan;95524.59;5012411;28;20664;-68
2022/05/09 09:39:27;;;;;;;3.92;1.80;;;;;;;23.81;nan;95518.47;5007697;28;20207;-66
2022/05/09 09:41:55;;;;;;;2.55;1.70;;;;;;;23.65;nan;95529.22;5022454;28;20250;-66
2022/05/09 09:44:24;;;;;;;1.80;1.70;;;;;;;23.46;nan;95528.16;5027193;28;20567;-67
2022/05/09 09:47:24;;;;;;;4.35;1.83;;;;;;;23.47;nan;95525.44;5012194;28;20200;-70
2022/05/09 09:50:13;;;;;;;1.92;1.80;;;;;;;23.19;nan;95521.53;5003729;28;20196;-69
2022/05/09 09:52:45;;;;;;;3.20;1.52;;;;;;;23.45;nan;95524.72;5008397;28;20270;-68
2022/05/09 09:55:23;;;;;;;4.07;1.38;;;;;;;23.67;nan;95506.59;5007911;28;20620;-68
2022/05/09 09:57:50;;;;;;;2.45;1.88;;;;;;;23.80;nan;95506.44;5026556;28;20192;-70
2022/05/09 10:00:20;;;;;;;3.42;1.52;;;;;;;23.76;nan;95512.00;5025515;28;20459;-71
2022/05/09 10:02:50;;;;;;;3.60;2.13;;;;;;;23.92;nan;95509.84;5027010;28;20299;-68
2022/05/09 10:05:20;;;;;;;1.73;1.63;;;;;;;24.31;nan;95517.06;5024034;28;20212;-69
2022/05/09 10:07:48;;;;;;;4.05;1.60;;;;;;;24.41;nan;95517.16;5008210;28;20230;-68
2022/05/09 10:10:18;;;;;;;3.42;1.63;;;;;;;24.49;nan;95513.94;5010689;28;20204;-68
2022/05/09 10:12:48;;;;;;;1.50;1.40;;;;;;;24.39;nan;95512.09;5011056;28;20247;-67
2022/05/09 10:15:30;;;;;;;4.13;1.50;;;;;;;24.57;nan;95506.31;5010251;28;20254;-67
2022/05/09 10:17:59;;;;;;;1.45;1.20;;;;;;;24.85;nan;95497.09;5010986;28;20658;-67
2022/05/09 10:20:33;;;;;;;2.00;1.75;;;;;;;24.92;nan;95512.06;5010641;28;20220;-69
2022/05/09 10:26:04;;;;;;;1.70;1.60;;;;;;;24.34;nan;95506.44;5010161;28;20211;-66
2022/05/09 10:28:36;;;;;;;1.52;1.42;;;;;;;24.15;nan;95495.84;5010706;28;20270;-68
2022/05/09 10:31:21;;;;;;;5.18;1.50;;;;;;;24.13;nan;95502.13;5010455;28;20321;-68
2022/05/09 10:33:58;;;;;;;3.97;1.83;;;;;;;23.86;nan;95489.56;5010473;28;20243;-67
2022/05/09 10:36:30;;;;;;;5.80;1.70;;;;;;;23.82;nan;95501.94;5010145;28;20199;-69
2022/05/09 10:39:06;;;;;;;3.15;1.70;;;;;;;23.70;nan;95498.56;5010411;28;20417;-68
2022/05/09 10:41:40;;;;;;;4.03;1.75;;;;;;;23.74;nan;95497.38;5022080;28;20289;-68
2022/05/09 10:44:14;;;;;;;1.48;1.38;;;;;;;24.25;nan;95490.78;5030137;28;20207;-68
2022/05/09 10:46:47;;;;;;;1.05;1.05;;;;;;;24.83;nan;95494.59;5028737;28;20250;-70
2022/05/09 10:49:29;;;;;;;3.30;1.52;;;;;;;24.91;nan;95497.41;5030444;28;20898;-68
2022/05/09 10:52:05;;;;;;;1.20;1.20;;;;;;;24.61;nan;95494.72;5017599;28;20295;-67
2022/05/09 10:54:42;;;;;;;1.90;1.55;;;;;;;24.28;nan;95493.09;5014032;28;20203;-67
2022/05/09 10:57:17;;;;;;;2.63;1.45;;;;;;;24.36;nan;95499.34;5013963;28;20208;-67
2022/05/09 10:59:45;;;;;;;1.42;0.95;;;;;;;24.82;nan;95486.94;5014356;28;20196;-68
2022/05/09 11:02:22;;;;;;;1.90;1.17;;;;;;;25.29;nan;95488.16;5031397;28;20200;-68
2022/05/09 11:04:50;;;;;;;1.58;1.48;;;;;;;25.48;nan;95487.44;5033675;28;20203;-68
2022/05/09 11:07:29;;;;;;;1.98;1.40;;;;;;;25.13;nan;95483.44;5014674;28;20255;-70
2022/05/09 11:10:10;;;;;;;2.92;2.58;;;;;;;25.34;nan;95486.00;5013627;28;20282;-68
2022/05/09 11:12:54;;;;;;;2.17;1.20;;;;;;;25.43;nan;95474.81;5013626;28;20236;-68
2022/05/09 11:15:32;;;;;;;1.90;1.15;;;;;;;25.04;nan;95476.41;5013674;28;20261;-68
2022/05/09 11:18:24;;;;;;;3.90;1.05;;;;;;;25.07;nan;95476.97;5013285;28;20731;-68
2022/05/09 11:21:03;;;;;;;1.95;1.40;;;;;;;24.84;nan;95470.25;5013404;28;20224;-69
2022/05/09 11:23:43;;;;;;;2.42;1.63;;;;;;;24.82;nan;95479.97;5013792;28;20192;-68
2022/05/09 11:26:15;;;;;;;2.97;1.30;;;;;;;25.02;nan;95471.34;5022210;28;20211;-68
2022/05/09 11:29:27;;;;;;;1.95;1.58;;;;;;;24.81;nan;95478.31;5033150;28;20232;-68
2022/05/09 11:32:08;;;;;;;1.95;1.25;;;;;;;24.70;nan;95476.63;4976170;28;20201;-68
2022/05/09 11:34:48;;;;;;;1.15;1.15;;;;;;;24.64;nan;95456.34;5015361;28;20199;-68
2022/05/09 11:37:26;;;;;;;42.55;25.40;;;;;;;25.24;nan;95459.94;5026163;28;20204;-67
2022/05/09 11:40:06;;;;;;;1.45;1.35;;;;;;;25.08;nan;95455.22;5013162;28;20228;-67
2022/05/09 11:45:44;;;;;;;3.47;1.77;;;;;;;25.29;nan;95459.56;5013199;28;20207;-68
2022/05/09 11:48:22;;;;;;;5.70;1.60;;;;;;;24.91;nan;95457.59;5012989;28;20196;-69
2022/05/09 11:50:56;;;;;;;2.28;1.70;;;;;;;24.79;nan;95443.81;5013379;28;20255;-68
2022/05/09 11:53:27;;;;;;;1.40;1.30;;;;;;;24.50;nan;95458.44;5013018;28;20202;-67
2022/05/09 11:55:55;;;;;;;2.75;1.48;;;;;;;24.76;nan;95449.28;5012085;28;20206;-68
2022/05/09 11:58:24;;;;;;;3.33;1.50;;;;;;;24.35;nan;95453.53;5010856;28;20208;-68
2022/05/09 12:00:54;;;;;;;1.52;1.40;;;;;;;24.38;nan;95450.69;5010541;28;20228;-67
2022/05/09 12:04:02;;;;;;;1.92;1.20;;;;;;;24.65;nan;95451.97;5018792;28;20196;-68
2022/05/09 12:06:34;;;;;;;1.88;1.77;;;;;;;24.54;nan;95444.22;5031477;28;20614;-67
2022/05/09 12:09:08;;;;;;;1.50;1.40;;;;;;;24.08;nan;95442.75;5030798;28;20195;-67
2022/05/09 12:11:48;;;;;;;1.27;1.10;;;;;;;24.45;nan;95439.78;5031995;28;20252;-67
2022/05/09 12:14:44;;;;;;;1.95;1.80;;;;;;;24.02;nan;95432.84;5015881;28;20204;-68
2022/05/09 12:17:23;;;;;;;3.75;1.63;;;;;;;23.70;nan;95430.25;5012455;28;20234;-68
2022/05/09 12:19:50;;;;;;;2.55;2.33;;;;;;;23.85;nan;95433.41;5013021;28;20204;-68
2022/05/09 12:22:47;;;;;;;2.45;2.25;;;;;;;23.78;nan;95433.06;5012127;28;20228;-68